Heron Island, Australia
Current Conditions -  °F | °C
As of 2:00 PM on Tuesday 23 Dec 2014 (Local Time) from YGLA Reporting Station
Scattered Clouds Scattered Clouds  
Wind Chill: 84°   Ceiling: Unl
Heat Index: 86°   Visibility: 6mi
Dew Point: 64°   Wind: 15mph
Humidity: 51%   Direction: 70°ENE
Pressure: 29.91"   Gusts: NA
Location:  23.43°S, 151.92°E
Report Text: YGLA 230400Z AUTO 07013KT 9999 // SCT038 SCT060 29/18 Q1013
Loading
Personal Weather Stations






























Interactive Weather Map New forecast layout! Learn more

10-Day Weather Forecast

Advertisements
Track Severe Weather on mobile